Time;durP1;ratioP1;P1;durP2;ratioP2;P2;SDS_P1;SDS_P2;PMS_P1;PMS_P2;Temp;Humidity;BMP_temperature;BMP_pressure;BME280_temperature;BME280_humidity;BME280_pressure;Samples;Min_cycle;Max_cycle;Signal;HPM_P1;HPM_P2
2023/10/04 00:02:06;;;;;;;10.30;3.27;;;13.00;84.10;;;;;;4985810;28;20427;-75
2023/10/04 00:04:34;;;;;;;4.03;1.93;;;12.80;84.70;;;;;;4993790;28;20426;-75
2023/10/04 00:07:03;;;;;;;5.43;2.83;;;12.80;84.70;;;;;;4993170;28;20497;-76
2023/10/04 00:09:31;;;;;;;4.80;2.60;;;12.70;84.90;;;;;;4989922;28;20429;-76
2023/10/04 00:11:58;;;;;;;5.10;2.50;;;12.70;85.00;;;;;;4992869;28;20423;-75
2023/10/04 00:14:23;;;;;;;7.77;2.77;;;12.70;85.30;;;;;;4991529;28;20426;-76
2023/10/04 00:16:49;;;;;;;6.47;2.70;;;12.70;84.90;;;;;;4989931;28;20814;-75
2023/10/04 00:19:15;;;;;;;4.60;2.50;;;12.70;84.90;;;;;;4993417;28;20182;-75
2023/10/04 00:21:41;;;;;;;4.50;2.60;;;12.70;85.00;;;;;;4988756;28;20205;-75
2023/10/04 00:24:09;;;;;;;6.20;2.40;;;12.70;85.00;;;;;;4993158;28;20191;-76
2023/10/04 00:26:35;;;;;;;5.13;2.10;;;12.70;85.00;;;;;;4982495;28;20573;-76
2023/10/04 00:29:01;;;;;;;5.33;2.90;;;12.70;84.90;;;;;;4992851;28;20513;-75
2023/10/04 00:31:28;;;;;;;5.13;3.00;;;12.60;84.90;;;;;;4984959;28;20195;-75
2023/10/04 00:33:53;;;;;;;5.60;2.43;;;12.60;85.00;;;;;;4989372;28;20528;-77
2023/10/04 00:36:21;;;;;;;17.33;3.00;;;12.60;85.20;;;;;;4987567;28;21065;-75
2023/10/04 00:38:47;;;;;;;7.80;3.40;;;12.60;84.90;;;;;;4992762;28;20250;-76
2023/10/04 00:41:12;;;;;;;4.50;2.20;;;12.60;84.90;;;;;;4995370;28;20631;-75
2023/10/04 00:43:51;;;;;;;5.87;3.00;;;12.60;84.90;;;;;;4990378;28;20179;-76
2023/10/04 00:46:20;;;;;;;5.33;2.80;;;12.50;84.90;;;;;;4988105;28;20282;-76
2023/10/04 00:48:47;;;;;;;4.67;2.33;;;12.40;85.00;;;;;;4989071;28;20418;-76
2023/10/04 00:51:13;;;;;;;4.10;2.30;;;12.50;85.20;;;;;;4986179;28;20437;-76
2023/10/04 00:53:39;;;;;;;6.30;2.63;;;12.50;85.20;;;;;;4992816;28;20422;-76
2023/10/04 00:56:08;;;;;;;4.97;2.70;;;12.60;85.00;;;;;;4990696;28;20472;-76
2023/10/04 00:58:35;;;;;;;4.63;2.40;;;12.50;84.90;;;;;;4990992;28;20434;-75
2023/10/04 01:01:01;;;;;;;4.00;2.43;;;12.50;84.90;;;;;;4992073;28;20433;-76
2023/10/04 01:03:32;;;;;;;4.63;2.30;;;12.60;85.00;;;;;;4988982;28;20430;-77
2023/10/04 01:06:00;;;;;;;4.57;2.83;;;12.60;84.40;;;;;;4986270;28;20295;-76
2023/10/04 01:08:25;;;;;;;3.93;2.20;;;12.50;84.60;;;;;;4990387;28;20430;-77
2023/10/04 01:10:54;;;;;;;4.83;2.37;;;12.50;84.90;;;;;;4992225;28;20968;-77
2023/10/04 01:13:22;;;;;;;6.80;2.30;;;12.40;84.90;;;;;;4988695;28;20183;-77
2023/10/04 01:16:00;;;;;;;4.90;2.40;;;12.50;85.00;;;;;;4989910;28;20500;-76
2023/10/04 01:21:12;;;;;;;6.07;2.60;;;12.50;85.00;;;;;;4931815;29;20413;-76
2023/10/04 01:23:40;;;;;;;3.63;2.30;;;12.50;84.90;;;;;;4932785;29;20489;-76
2023/10/04 01:26:05;;;;;;;4.80;2.40;;;12.50;84.90;;;;;;4930011;29;20284;-76
2023/10/04 01:28:31;;;;;;;6.10;2.83;;;12.50;84.90;;;;;;4943417;29;20523;-76
2023/10/04 01:31:00;;;;;;;8.13;3.20;;;12.40;84.40;;;;;;4937427;29;20236;-77
2023/10/04 01:33:28;;;;;;;4.77;2.40;;;12.30;84.70;;;;;;4941976;29;20204;-76
2023/10/04 01:35:54;;;;;;;5.13;2.43;;;12.30;85.20;;;;;;4933178;29;20527;-76
2023/10/04 01:38:24;;;;;;;5.00;2.70;;;12.30;85.50;;;;;;4943418;29;20424;-77
2023/10/04 01:40:51;;;;;;;7.13;2.77;;;12.30;85.20;;;;;;4935543;29;20527;-77
2023/10/04 01:43:16;;;;;;;4.20;2.20;;;12.30;85.30;;;;;;4947000;29;20463;-77
2023/10/04 01:45:53;;;;;;;6.40;2.30;;;12.30;85.00;;;;;;4926690;29;21025;-76
2023/10/04 01:48:19;;;;;;;5.03;2.27;;;12.20;85.20;;;;;;4936562;29;20251;-77
2023/10/04 01:50:48;;;;;;;7.30;2.43;;;12.10;85.30;;;;;;4933576;29;20556;-76
2023/10/04 01:53:15;;;;;;;7.77;3.13;;;12.10;85.50;;;;;;4936120;29;20438;-76
2023/10/04 01:55:41;;;;;;;4.50;2.30;;;12.10;85.50;;;;;;4931196;29;20460;-75
2023/10/04 01:58:08;;;;;;;4.00;2.27;;;12.00;85.60;;;;;;4965002;28;20437;-76
2023/10/04 02:00:34;;;;;;;7.60;2.53;;;12.10;85.90;;;;;;4988258;28;20671;-76
2023/10/04 02:03:03;;;;;;;3.00;2.10;;;12.10;85.60;;;;;;4990193;28;20429;-76
2023/10/04 02:05:31;;;;;;;7.23;2.50;;;12.10;85.50;;;;;;4987959;28;20457;-76
2023/10/04 02:07:58;;;;;;;8.07;2.43;;;12.10;85.50;;;;;;4991111;28;20471;-76
2023/10/04 02:10:24;;;;;;;4.87;2.37;;;12.10;85.60;;;;;;4984221;28;20458;-77
2023/10/04 02:12:56;;;;;;;6.37;2.47;;;12.00;85.70;;;;;;4987814;28;20429;-77
2023/10/04 02:15:22;;;;;;;5.80;3.13;;;12.00;85.70;;;;;;4979353;28;20466;-76
2023/10/04 02:17:50;;;;;;;9.23;3.37;;;12.00;85.70;;;;;;4987728;28;20426;-78
2023/10/04 02:20:28;;;;;;;6.00;2.80;;;12.10;85.60;;;;;;4984192;28;20459;-78
2023/10/04 02:23:00;;;;;;;5.77;2.67;;;12.10;85.60;;;;;;4988551;28;20487;-78
2023/10/04 02:25:26;;;;;;;6.03;2.60;;;12.00;85.30;;;;;;4982165;28;20454;-78
2023/10/04 02:27:55;;;;;;;4.97;2.50;;;12.00;85.60;;;;;;4990168;28;20484;-77
2023/10/04 02:30:26;;;;;;;4.17;2.43;;;12.00;85.90;;;;;;4991745;28;20829;-77
2023/10/04 02:32:53;;;;;;;3.50;2.27;;;12.10;85.70;;;;;;4989327;28;21025;-77
2023/10/04 02:35:28;;;;;;;6.43;2.40;;;12.20;85.60;;;;;;4986346;28;20470;-77
2023/10/04 02:38:00;;;;;;;6.53;3.17;;;12.10;85.50;;;;;;4990382;28;20434;-77
2023/10/04 02:40:32;;;;;;;6.60;2.63;;;12.10;85.50;;;;;;4990345;28;20422;-78
2023/10/04 02:42:59;;;;;;;6.43;2.93;;;12.10;85.60;;;;;;4991247;28;20524;-78
2023/10/04 02:45:26;;;;;;;4.23;2.60;;;12.10;85.00;;;;;;4990574;28;20524;-77
2023/10/04 02:47:53;;;;;;;4.13;2.20;;;12.10;85.20;;;;;;4999780;28;21005;-76
2023/10/04 02:50:25;;;;;;;3.97;2.30;;;12.10;85.20;;;;;;4990723;28;20464;-77
2023/10/04 02:52:51;;;;;;;4.70;2.40;;;12.10;85.20;;;;;;4988915;28;20941;-77
2023/10/04 02:55:18;;;;;;;7.17;2.73;;;12.00;85.30;;;;;;4988067;28;20454;-77
2023/10/04 02:57:50;;;;;;;4.53;2.47;;;11.90;85.30;;;;;;4990569;28;20497;-75
2023/10/04 03:00:19;;;;;;;5.83;2.70;;;11.90;85.50;;;;;;4984751;28;20426;-74
2023/10/04 03:02:50;;;;;;;5.20;2.27;;;11.90;85.70;;;;;;4990920;28;20421;-73
2023/10/04 03:05:19;;;;;;;4.83;2.27;;;11.90;85.70;;;;;;4984642;28;20466;-74
2023/10/04 03:07:50;;;;;;;7.13;2.83;;;11.80;85.50;;;;;;4989743;28;20559;-75
2023/10/04 03:10:27;;;;;;;4.87;2.40;;;11.80;85.70;;;;;;4987204;28;20406;-73
2023/10/04 03:12:56;;;;;;;5.50;2.07;;;11.80;86.00;;;;;;4987134;28;20790;-74
2023/10/04 03:15:23;;;;;;;4.47;2.80;;;11.80;86.30;;;;;;4984259;28;20494;-76
2023/10/04 03:17:53;;;;;;;4.30;2.50;;;11.80;86.30;;;;;;4988070;28;20418;-73
2023/10/04 03:20:20;;;;;;;6.10;2.60;;;11.80;86.50;;;;;;4989717;28;20421;-76
2023/10/04 03:22:50;;;;;;;5.00;2.07;;;11.90;86.50;;;;;;4990570;28;20822;-74
2023/10/04 03:25:16;;;;;;;5.40;2.50;;;12.00;85.70;;;;;;4986695;28;20465;-75
2023/10/04 03:27:45;;;;;;;6.03;2.80;;;12.00;85.50;;;;;;4989761;28;20470;-75
2023/10/04 03:30:14;;;;;;;6.57;2.47;;;12.00;85.50;;;;;;4994661;28;20417;-74
2023/10/04 03:32:45;;;;;;;4.60;2.53;;;12.10;85.50;;;;;;4995246;28;20504;-76
2023/10/04 03:35:14;;;;;;;4.27;2.40;;;12.10;85.30;;;;;;4997352;28;20645;-74
2023/10/04 03:37:50;;;;;;;5.80;2.87;;;12.10;85.30;;;;;;4996513;28;20504;-74
2023/10/04 03:40:17;;;;;;;4.43;2.27;;;12.10;85.50;;;;;;4996974;28;20456;-74
2023/10/04 03:42:43;;;;;;;5.13;2.70;;;12.10;85.50;;;;;;4990549;28;20418;-74
2023/10/04 03:45:12;;;;;;;5.23;2.77;;;12.10;85.50;;;;;;4990717;28;20468;-74
2023/10/04 03:47:39;;;;;;;4.93;2.80;;;12.20;85.60;;;;;;4989954;28;20202;-75
2023/10/04 03:50:12;;;;;;;4.43;2.07;;;12.30;85.20;;;;;;4992623;28;20483;-74
2023/10/04 03:52:39;;;;;;;4.77;2.37;;;12.30;84.40;;;;;;4983536;28;20454;-74
2023/10/04 03:55:10;;;;;;;5.80;2.77;;;12.30;84.30;;;;;;4990733;28;20524;-75
2023/10/04 03:57:38;;;;;;;6.07;2.80;;;12.30;84.30;;;;;;4988501;28;20433;-75
2023/10/04 04:00:11;;;;;;;7.47;3.40;;;12.30;84.30;;;;;;4993710;28;20922;-73
2023/10/04 04:02:37;;;;;;;8.63;2.53;;;12.30;84.60;;;;;;4993822;28;20420;-76
2023/10/04 04:05:05;;;;;;;6.33;2.67;;;12.40;84.40;;;;;;4990452;28;20449;-75
2023/10/04 04:07:31;;;;;;;4.23;2.73;;;12.40;84.30;;;;;;4993341;28;20477;-76
2023/10/04 04:09:56;;;;;;;7.33;2.60;;;12.50;84.00;;;;;;4994179;28;20422;-77
2023/10/04 04:12:22;;;;;;;5.33;2.60;;;12.50;83.80;;;;;;4994276;28;20666;-76
2023/10/04 04:14:48;;;;;;;5.60;3.00;;;12.50;83.70;;;;;;4992220;28;20266;-78
2023/10/04 04:17:14;;;;;;;9.23;2.97;;;12.50;83.30;;;;;;4985579;28;20559;-76
2023/10/04 04:19:39;;;;;;;15.43;3.70;;;12.40;83.30;;;;;;4991080;28;20182;-76
2023/10/04 04:22:05;;;;;;;4.23;2.80;;;12.40;83.60;;;;;;4992723;28;20580;-76
2023/10/04 04:24:31;;;;;;;6.03;3.20;;;12.40;83.40;;;;;;4988536;28;20670;-75
2023/10/04 04:27:00;;;;;;;6.47;2.97;;;12.40;83.60;;;;;;4985148;28;20487;-75
2023/10/04 04:29:27;;;;;;;4.07;2.53;;;12.50;83.40;;;;;;4991575;28;20186;-76
2023/10/04 04:31:53;;;;;;;13.10;2.60;;;12.40;83.30;;;;;;4991578;28;20946;-77
2023/10/04 04:34:18;;;;;;;6.77;3.10;;;12.40;83.30;;;;;;4990875;28;20434;-75
2023/10/04 04:36:46;;;;;;;7.37;2.53;;;12.30;83.30;;;;;;4985045;28;20309;-76
2023/10/04 04:39:18;;;;;;;4.30;2.27;;;12.30;83.40;;;;;;4988312;28;20245;-76
2023/10/04 04:41:46;;;;;;;11.10;2.93;;;12.20;83.60;;;;;;4989103;28;21248;-76
2023/10/04 04:44:19;;;;;;;3.90;2.33;;;12.20;83.70;;;;;;4986017;28;20466;-75
2023/10/04 04:46:47;;;;;;;5.10;2.67;;;12.10;83.80;;;;;;4984464;28;20470;-76
2023/10/04 04:49:13;;;;;;;5.97;2.80;;;12.10;84.00;;;;;;4986753;28;20425;-76
2023/10/04 04:51:39;;;;;;;4.67;2.23;;;12.10;84.10;;;;;;4992705;28;20418;-76
2023/10/04 04:54:06;;;;;;;5.37;2.57;;;12.10;84.10;;;;;;4992158;28;20458;-73
2023/10/04 04:56:32;;;;;;;6.00;2.77;;;12.10;84.00;;;;;;4993506;28;20210;-72
2023/10/04 04:58:57;;;;;;;5.80;2.97;;;12.10;83.80;;;;;;4996438;28;20424;-72
2023/10/04 05:01:23;;;;;;;5.80;3.07;;;12.10;84.00;;;;;;4991734;28;20277;-72
2023/10/04 05:03:52;;;;;;;7.30;2.80;;;12.10;83.80;;;;;;4990941;28;20186;-72
2023/10/04 05:06:25;;;;;;;6.70;3.17;;;12.10;83.70;;;;;;4988320;28;20206;-73
2023/10/04 05:08:53;;;;;;;9.17;2.67;;;12.10;83.60;;;;;;4992571;28;20500;-72
2023/10/04 05:11:19;;;;;;;6.23;3.07;;;12.00;83.60;;;;;;4993212;28;20428;-72
2023/10/04 05:13:45;;;;;;;6.63;2.60;;;12.00;83.60;;;;;;4992100;28;20788;-72
2023/10/04 05:16:10;;;;;;;5.00;2.33;;;12.10;83.40;;;;;;4990587;28;20446;-76
2023/10/04 05:18:37;;;;;;;8.20;3.20;;;12.00;83.30;;;;;;4992973;28;20421;-75
2023/10/04 05:21:04;;;;;;;5.30;2.80;;;12.10;83.10;;;;;;4991261;28;20317;-74
2023/10/04 05:23:29;;;;;;;7.50;2.77;;;12.10;83.10;;;;;;4988593;28;20437;-74
2023/10/04 05:25:56;;;;;;;7.93;2.87;;;12.00;83.10;;;;;;4989359;28;20462;-75
2023/10/04 05:28:22;;;;;;;12.60;3.07;;;12.00;83.30;;;;;;4994008;28;20213;-74
2023/10/04 05:30:51;;;;;;;6.90;2.83;;;12.00;83.30;;;;;;4991263;28;20429;-75
2023/10/04 05:33:21;;;;;;;5.63;3.03;;;11.90;83.30;;;;;;4991052;28;20480;-75
2023/10/04 05:35:52;;;;;;;6.23;3.57;;;11.90;83.70;;;;;;4981062;28;20467;-75
2023/10/04 05:38:18;;;;;;;9.37;3.70;;;11.90;83.70;;;;;;4985037;28;20441;-75
2023/10/04 05:40:47;;;;;;;6.87;3.80;;;11.90;83.80;;;;;;4991778;28;20428;-74
2023/10/04 05:43:15;;;;;;;6.77;3.63;;;11.90;83.70;;;;;;4988143;28;20254;-74
2023/10/04 05:45:45;;;;;;;8.40;3.30;;;11.90;83.60;;;;;;4981837;28;20989;-75
2023/10/04 05:48:12;;;;;;;9.60;3.57;;;11.80;83.70;;;;;;4994749;28;20465;-74
2023/10/04 05:50:39;;;;;;;8.17;3.50;;;11.80;83.60;;;;;;4993086;28;20493;-75
2023/10/04 05:53:07;;;;;;;8.77;3.60;;;11.80;83.60;;;;;;4992905;28;20434;-74
2023/10/04 05:55:37;;;;;;;8.67;3.10;;;11.90;83.40;;;;;;4985281;28;20536;-75
2023/10/04 05:58:13;;;;;;;5.50;3.27;;;11.90;83.10;;;;;;4992556;28;20488;-75
2023/10/04 06:00:41;;;;;;;9.07;3.30;;;11.90;83.10;;;;;;4989654;28;20429;-76
2023/10/04 06:03:11;;;;;;;7.37;3.00;;;11.80;83.30;;;;;;4990855;28;20418;-74
2023/10/04 06:05:40;;;;;;;6.43;3.17;;;11.90;83.40;;;;;;4984651;28;20453;-75
2023/10/04 06:08:12;;;;;;;10.80;3.70;;;11.80;83.30;;;;;;4992400;28;20556;-74
2023/10/04 06:10:38;;;;;;;7.80;3.33;;;11.80;83.40;;;;;;4987567;28;20441;-73
2023/10/04 06:13:11;;;;;;;13.53;3.80;;;11.90;83.40;;;;;;4992321;28;20445;-74
2023/10/04 06:15:39;;;;;;;5.63;2.60;;;11.80;83.10;;;;;;4988512;28;20465;-74
2023/10/04 06:18:07;;;;;;;6.27;3.30;;;11.80;83.30;;;;;;4989196;28;20426;-75
2023/10/04 06:23:05;;;;;;;8.97;3.90;;;12.00;82.80;;;;;;4990803;28;20942;-74
2023/10/04 06:25:34;;;;;;;7.13;2.87;;;11.90;82.50;;;;;;4990867;28;20284;-74
2023/10/04 06:28:03;;;;;;;8.07;3.13;;;11.90;83.00;;;;;;4987141;28;20461;-74
2023/10/04 06:30:31;;;;;;;6.30;3.27;;;12.00;82.80;;;;;;4989827;28;20429;-75
2023/10/04 06:32:59;;;;;;;9.03;3.83;;;12.00;82.80;;;;;;4984445;28;20511;-74
2023/10/04 06:35:27;;;;;;;7.30;3.33;;;12.00;82.70;;;;;;4990461;28;20465;-75
2023/10/04 06:37:57;;;;;;;5.77;2.63;;;12.10;82.70;;;;;;4992039;28;20460;-74
2023/10/04 06:40:23;;;;;;;5.00;3.20;;;12.20;82.40;;;;;;4993873;28;20429;-75
2023/10/04 06:42:50;;;;;;;6.57;3.50;;;12.20;81.90;;;;;;4992958;28;20449;-75
2023/10/04 06:45:17;;;;;;;8.37;2.93;;;12.30;81.90;;;;;;4988010;28;20472;-76
2023/10/04 06:47:44;;;;;;;5.40;2.43;;;12.40;81.20;;;;;;4988612;28;20547;-74
2023/10/04 06:50:13;;;;;;;4.63;2.90;;;12.50;81.20;;;;;;4991835;28;20477;-73
2023/10/04 06:52:43;;;;;;;11.30;3.47;;;12.50;81.10;;;;;;4991453;28;20472;-74
2023/10/04 06:55:12;;;;;;;8.57;3.63;;;12.60;80.80;;;;;;4991035;28;20473;-75
2023/10/04 06:57:41;;;;;;;13.73;3.47;;;12.60;79.90;;;;;;4993665;28;20429;-74
2023/10/04 07:00:14;;;;;;;8.23;2.73;;;12.70;79.90;;;;;;4994399;28;20942;-74
2023/10/04 07:02:45;;;;;;;7.57;2.97;;;12.70;80.00;;;;;;4997504;28;20453;-74
2023/10/04 07:05:19;;;;;;;10.03;3.10;;;12.60;80.00;;;;;;4994780;28;20484;-74
2023/10/04 07:07:46;;;;;;;5.50;2.70;;;12.60;80.20;;;;;;4991186;28;21016;-74
2023/10/04 07:10:14;;;;;;;6.20;2.47;;;12.70;80.00;;;;;;4987657;28;21008;-76
2023/10/04 07:12:43;;;;;;;5.50;2.50;;;12.70;80.00;;;;;;4988466;28;20664;-75
2023/10/04 07:15:10;;;;;;;5.93;2.67;;;12.70;79.90;;;;;;4992098;28;20457;-76
2023/10/04 07:17:38;;;;;;;7.27;2.63;;;12.80;79.70;;;;;;4989815;28;20429;-74
2023/10/04 07:20:07;;;;;;;11.17;2.87;;;12.90;79.30;;;;;;4995980;28;20960;-77
2023/10/04 07:22:33;;;;;;;5.80;2.60;;;12.90;79.20;;;;;;4996802;28;20536;-76
2023/10/04 07:24:59;;;;;;;10.80;2.90;;;12.90;79.20;;;;;;4997245;28;20430;-75
2023/10/04 07:27:26;;;;;;;5.43;2.00;;;13.00;78.70;;;;;;4991955;28;20536;-74
2023/10/04 07:29:53;;;;;;;4.77;2.37;;;13.10;78.30;;;;;;4992562;28;20436;-77
2023/10/04 07:32:19;;;;;;;5.20;2.40;;;13.30;77.80;;;;;;4992611;28;20441;-75
2023/10/04 07:34:45;;;;;;;5.50;2.23;;;13.40;77.10;;;;;;4991081;28;20957;-77
2023/10/04 07:37:11;;;;;;;3.70;2.17;;;13.50;76.10;;;;;;4990669;28;20437;-74
2023/10/04 07:39:36;;;;;;;4.20;1.83;;;13.50;76.40;;;;;;4988560;28;20187;-75
2023/10/04 07:42:02;;;;;;;6.27;1.80;;;13.70;75.90;;;;;;4991810;28;20182;-74
2023/10/04 07:44:30;;;;;;;5.57;2.47;;;13.70;75.90;;;;;;4994221;28;20183;-76
2023/10/04 07:47:01;;;;;;;7.23;3.07;;;13.80;75.80;;;;;;4990661;28;20511;-75
2023/10/04 07:49:29;;;;;;;4.50;1.90;;;13.90;75.50;;;;;;4995735;28;20943;-75
2023/10/04 07:51:55;;;;;;;8.53;3.07;;;14.00;75.20;;;;;;4990425;28;20425;-76
2023/10/04 07:54:21;;;;;;;6.13;2.37;;;14.00;74.90;;;;;;4994100;28;20919;-76
2023/10/04 07:56:48;;;;;;;6.53;2.10;;;14.10;74.90;;;;;;4993192;28;20473;-74
2023/10/04 07:59:15;;;;;;;7.10;1.93;;;14.10;74.20;;;;;;4984790;28;20175;-75
2023/10/04 08:01:40;;;;;;;4.97;2.00;;;14.20;73.90;;;;;;4993931;28;20426;-76
2023/10/04 08:04:08;;;;;;;6.87;2.60;;;14.20;73.90;;;;;;4992310;28;20989;-76
2023/10/04 08:06:39;;;;;;;5.27;2.07;;;14.20;73.70;;;;;;4989518;28;20218;-75
2023/10/04 08:09:05;;;;;;;6.90;2.00;;;14.30;73.90;;;;;;4988653;28;20420;-74
2023/10/04 08:11:34;;;;;;;4.53;2.37;;;14.40;73.60;;;;;;4994090;28;20420;-75
2023/10/04 08:14:01;;;;;;;10.27;3.60;;;14.50;73.60;;;;;;4994768;28;20180;-75
2023/10/04 08:16:30;;;;;;;12.83;3.90;;;14.60;73.00;;;;;;4987638;28;20523;-75
2023/10/04 08:18:56;;;;;;;5.53;1.97;;;14.60;72.10;;;;;;4994075;28;20426;-75
2023/10/04 08:21:23;;;;;;;7.53;2.60;;;14.60;71.00;;;;;;4993571;28;20938;-75
2023/10/04 08:23:49;;;;;;;6.93;2.30;;;14.80;71.40;;;;;;4993105;28;20299;-76
2023/10/04 08:26:15;;;;;;;6.77;2.23;;;14.90;70.80;;;;;;4985615;28;20548;-75
2023/10/04 08:28:42;;;;;;;4.50;2.20;;;14.90;71.00;;;;;;4993052;28;20429;-75
2023/10/04 08:31:13;;;;;;;7.33;2.20;;;15.00;71.30;;;;;;4991023;28;20919;-75
2023/10/04 08:33:38;;;;;;;6.53;2.57;;;14.90;69.90;;;;;;4990348;28;20503;-75
2023/10/04 08:36:10;;;;;;;7.33;2.57;;;15.10;69.50;;;;;;4988572;28;20851;-75
2023/10/04 08:38:38;;;;;;;4.83;1.90;;;15.20;69.40;;;;;;4986018;28;20630;-75
2023/10/04 08:41:04;;;;;;;4.87;1.90;;;15.20;68.30;;;;;;4993359;28;20433;-75
2023/10/04 08:43:32;;;;;;;4.53;2.07;;;15.20;68.50;;;;;;4989028;28;20457;-76
2023/10/04 08:45:58;;;;;;;11.10;1.97;;;15.20;68.30;;;;;;4985947;28;20210;-76
2023/10/04 08:48:26;;;;;;;5.90;2.03;;;15.20;67.90;;;;;;4989870;28;20461;-75
2023/10/04 08:51:13;;;;;;;4.87;2.00;;;15.30;68.30;;;;;;4993470;28;20194;-74
2023/10/04 08:53:53;;;;;;;6.83;1.80;;;15.40;67.60;;;;;;4986851;28;20412;-75
2023/10/04 08:56:19;;;;;;;9.10;2.23;;;15.40;67.00;;;;;;4981848;28;20888;-75
2023/10/04 08:58:46;;;;;;;5.77;1.80;;;15.50;66.90;;;;;;4993099;28;20436;-74
2023/10/04 09:01:15;;;;;;;4.90;2.37;;;15.50;67.30;;;;;;4993199;28;20452;-73
2023/10/04 09:03:42;;;;;;;7.07;2.00;;;15.40;66.60;;;;;;4992483;28;20458;-75
2023/10/04 09:06:14;;;;;;;7.83;1.90;;;15.60;67.00;;;;;;4988915;28;20460;-74
2023/10/04 09:08:40;;;;;;;6.40;2.07;;;15.60;67.30;;;;;;4993617;28;20429;-74
2023/10/04 09:11:10;;;;;;;3.70;1.93;;;15.60;66.30;;;;;;4995314;28;20425;-73
2023/10/04 09:13:43;;;;;;;6.00;1.70;;;15.70;66.30;;;;;;4997265;28;20541;-74
2023/10/04 09:16:24;;;;;;;4.77;1.90;;;15.70;66.30;;;;;;4997324;28;20567;-74
2023/10/04 09:19:03;;;;;;;6.00;2.10;;;15.80;66.10;;;;;;5004005;28;20433;-74
2023/10/04 09:21:30;;;;;;;6.97;2.57;;;15.80;66.60;;;;;;4996859;28;20436;-75
2023/10/04 09:24:09;;;;;;;6.20;1.90;;;15.90;66.00;;;;;;4990772;28;20452;-75
2023/10/04 09:26:49;;;;;;;5.53;1.70;;;16.00;66.00;;;;;;4980146;28;20480;-75
2023/10/04 09:29:15;;;;;;;4.43;2.07;;;16.10;65.30;;;;;;4991105;28;20943;-75
2023/10/04 09:31:50;;;;;;;8.10;2.57;;;16.30;65.40;;;;;;4988955;28;20442;-74
2023/10/04 09:34:16;;;;;;;5.60;2.20;;;16.40;64.70;;;;;;4989973;28;21267;-75
2023/10/04 09:36:42;;;;;;;4.10;1.70;;;16.30;64.80;;;;;;4982783;28;20520;-74
2023/10/04 09:39:13;;;;;;;7.47;1.83;;;16.30;65.00;;;;;;4990722;28;20846;-74
2023/10/04 09:41:44;;;;;;;2.47;1.60;;;16.30;65.10;;;;;;4987245;28;20422;-74
2023/10/04 09:44:25;;;;;;;3.97;1.97;;;16.40;65.10;;;;;;4988902;28;20480;-74
2023/10/04 09:47:00;;;;;;;3.73;1.60;;;16.40;65.00;;;;;;4988376;28;20568;-75
2023/10/04 09:49:35;;;;;;;3.63;1.50;;;16.60;64.80;;;;;;4992153;28;20805;-75
2023/10/04 09:52:05;;;;;;;5.43;2.07;;;16.50;65.10;;;;;;4990108;28;20439;-74
2023/10/04 09:54:31;;;;;;;7.43;1.77;;;16.60;65.70;;;;;;4990142;28;20457;-74
2023/10/04 09:56:57;;;;;;;5.70;2.10;;;16.70;65.60;;;;;;4988119;28;20460;-75
2023/10/04 09:59:23;;;;;;;3.43;1.67;;;16.80;65.30;;;;;;4987140;28;20190;-75
2023/10/04 10:01:54;;;;;;;5.27;1.97;;;16.80;65.60;;;;;;4989478;28;20492;-76
2023/10/04 10:04:23;;;;;;;4.70;2.03;;;16.70;65.60;;;;;;4984621;28;20437;-74
2023/10/04 10:06:55;;;;;;;3.83;1.80;;;16.70;65.80;;;;;;4983321;28;20493;-74
2023/10/04 10:09:24;;;;;;;4.90;1.87;;;16.70;65.30;;;;;;4986147;28;20469;-74
2023/10/04 10:11:52;;;;;;;3.83;1.70;;;16.70;65.40;;;;;;4991947;28;20465;-73
2023/10/04 10:14:21;;;;;;;4.50;1.80;;;16.70;64.80;;;;;;4989380;28;20435;-74
2023/10/04 10:16:54;;;;;;;4.37;1.97;;;16.70;65.40;;;;;;4982464;28;20510;-75
2023/10/04 10:19:21;;;;;;;7.13;2.00;;;16.80;65.30;;;;;;4991455;28;20477;-74
2023/10/04 10:22:16;;;;;;;4.70;2.17;;;16.80;65.10;;;;;;4988036;28;20434;-74
2023/10/04 10:24:56;;;;;;;5.93;2.13;;;16.90;65.30;;;;;;4990085;28;20867;-74
2023/10/04 10:27:23;;;;;;;3.83;2.13;;;17.30;64.50;;;;;;4988810;28;20465;-74
2023/10/04 10:29:51;;;;;;;8.10;1.70;;;17.40;64.20;;;;;;4991455;28;20447;-74
2023/10/04 10:32:22;;;;;;;3.50;2.17;;;17.70;62.80;;;;;;4989292;28;20515;-74
2023/10/04 10:34:50;;;;;;;7.37;2.87;;;17.70;63.20;;;;;;4990483;28;20521;-74
2023/10/04 10:37:23;;;;;;;7.90;1.90;;;17.70;62.80;;;;;;4984677;28;20500;-74
2023/10/04 10:39:50;;;;;;;7.73;2.40;;;17.60;63.40;;;;;;4985766;28;20424;-75
2023/10/04 10:42:18;;;;;;;5.70;2.50;;;17.70;63.20;;;;;;4985338;28;20437;-74
2023/10/04 10:44:44;;;;;;;9.20;2.20;;;17.70;63.50;;;;;;4982534;28;20476;-75
2023/10/04 10:47:25;;;;;;;4.50;2.03;;;17.80;63.40;;;;;;4983747;28;20483;-75
2023/10/04 10:50:12;;;;;;;8.57;2.67;;;17.80;63.50;;;;;;4981194;28;20835;-74
2023/10/04 10:52:39;;;;;;;4.70;2.40;;;18.00;62.90;;;;;;4988331;28;20427;-74
2023/10/04 10:55:19;;;;;;;4.80;1.90;;;18.10;62.30;;;;;;4978633;28;20467;-75
2023/10/04 10:57:48;;;;;;;5.30;2.27;;;18.00;62.60;;;;;;4982947;28;20796;-74
2023/10/04 11:02:42;;;;;;;3.77;1.63;;;17.80;62.00;;;;;;4986992;28;20431;-76
2023/10/04 11:05:09;;;;;;;3.10;1.50;;;18.00;61.60;;;;;;4982626;28;22385;-74
2023/10/04 11:07:36;;;;;;;3.00;1.93;;;18.30;60.90;;;;;;4985377;28;20483;-75
2023/10/04 11:10:04;;;;;;;2.27;1.40;;;18.70;59.70;;;;;;4990909;28;20440;-75
2023/10/04 11:12:37;;;;;;;2.87;1.60;;;19.20;58.10;;;;;;4991278;28;20430;-74
2023/10/04 11:15:03;;;;;;;3.40;1.60;;;19.30;58.10;;;;;;4988522;28;20465;-76
2023/10/04 11:17:30;;;;;;;3.60;1.60;;;19.50;57.30;;;;;;4988555;28;20430;-74
2023/10/04 11:19:55;;;;;;;4.77;2.03;;;19.60;56.80;;;;;;4990462;28;20796;-74
2023/10/04 11:22:23;;;;;;;5.67;1.70;;;19.40;56.60;;;;;;4987749;28;20435;-76
2023/10/04 11:24:50;;;;;;;4.83;1.70;;;19.50;56.50;;;;;;4989444;28;20245;-76
2023/10/04 11:27:22;;;;;;;5.43;1.80;;;19.50;56.80;;;;;;4983459;28;20545;-75
2023/10/04 11:29:49;;;;;;;3.80;2.20;;;19.60;57.00;;;;;;4987855;28;20422;-74
2023/10/04 11:32:15;;;;;;;5.30;1.90;;;19.30;59.60;;;;;;4989432;28;20438;-75
2023/10/04 11:34:43;;;;;;;5.30;2.30;;;18.90;60.70;;;;;;4992448;28;20456;-74
2023/10/04 11:37:10;;;;;;;5.73;1.80;;;19.00;61.20;;;;;;4991560;28;20449;-73
2023/10/04 11:39:39;;;;;;;8.67;2.33;;;19.00;60.10;;;;;;4988647;28;20436;-74
2023/10/04 11:42:17;;;;;;;5.00;1.90;;;18.70;59.70;;;;;;4992093;28;20460;-74
2023/10/04 11:44:43;;;;;;;4.67;1.67;;;18.40;60.30;;;;;;4995161;28;20597;-75
2023/10/04 11:47:09;;;;;;;4.30;2.30;;;18.20;61.00;;;;;;4982889;28;20530;-74
2023/10/04 11:49:38;;;;;;;3.60;1.90;;;18.40;61.50;;;;;;4987428;28;20472;-75
2023/10/04 11:52:07;;;;;;;2.20;1.30;;;18.90;59.30;;;;;;4988896;28;20991;-75
2023/10/04 11:54:44;;;;;;;6.90;1.77;;;19.00;59.20;;;;;;4989114;28;20426;-74
2023/10/04 11:57:11;;;;;;;3.63;1.90;;;19.20;59.20;;;;;;4986938;28;20437;-74
2023/10/04 11:59:38;;;;;;;2.93;1.70;;;19.20;58.80;;;;;;4991269;28;20517;-75
2023/10/04 12:02:04;;;;;;;6.10;2.17;;;19.10;58.10;;;;;;4993441;28;20433;-74
2023/10/04 12:04:34;;;;;;;2.40;1.80;;;19.20;58.50;;;;;;4994147;28;20428;-75
2023/10/04 12:07:04;;;;;;;3.80;1.40;;;19.60;57.80;;;;;;4989103;28;20788;-74
2023/10/04 12:09:33;;;;;;;4.30;1.73;;;19.60;57.60;;;;;;4990663;28;20514;-74
2023/10/04 12:12:02;;;;;;;5.07;1.93;;;19.80;57.70;;;;;;4991725;28;20948;-75
2023/10/04 12:14:31;;;;;;;4.87;1.77;;;19.70;57.60;;;;;;4992570;28;20445;-75
2023/10/04 12:17:03;;;;;;;2.83;1.80;;;19.60;56.90;;;;;;4987076;28;20493;-74
2023/10/04 12:19:37;;;;;;;3.97;1.50;;;19.50;57.20;;;;;;4988587;28;21272;-75
2023/10/04 12:22:11;;;;;;;3.60;1.50;;;19.20;57.00;;;;;;4987829;28;20493;-76
2023/10/04 12:24:38;;;;;;;4.30;2.13;;;19.00;56.80;;;;;;4985971;28;20431;-75
2023/10/04 12:27:08;;;;;;;3.00;1.67;;;19.00;57.30;;;;;;4986223;28;20492;-74
2023/10/04 12:29:36;;;;;;;3.10;1.63;;;19.00;57.30;;;;;;4995740;28;20433;-74
2023/10/04 12:32:02;;;;;;;2.90;1.60;;;19.20;57.30;;;;;;4996677;28;20541;-74
2023/10/04 12:34:29;;;;;;;3.63;1.73;;;19.30;56.50;;;;;;4996101;28;20451;-74
2023/10/04 12:36:55;;;;;;;5.87;1.50;;;19.30;56.80;;;;;;4995690;28;20461;-74
2023/10/04 12:39:21;;;;;;;4.60;1.70;;;19.00;57.20;;;;;;4994818;28;20945;-74
2023/10/04 12:41:50;;;;;;;4.60;1.80;;;18.70;57.70;;;;;;4990450;28;20430;-74
2023/10/04 12:44:18;;;;;;;3.10;1.50;;;18.60;58.40;;;;;;4992463;28;20828;-74
2023/10/04 12:46:44;;;;;;;2.53;1.77;;;18.80;58.10;;;;;;4983639;28;20481;-75
2023/10/04 12:49:10;;;;;;;8.53;2.20;;;18.60;58.90;;;;;;4995002;28;21620;-75
2023/10/04 12:51:35;;;;;;;4.13;1.40;;;18.80;58.50;;;;;;4988029;28;20429;-75
2023/10/04 12:54:03;;;;;;;5.50;1.90;;;19.30;57.70;;;;;;4994634;28;20210;-75
2023/10/04 12:56:28;;;;;;;5.10;1.87;;;19.80;56.40;;;;;;4990848;28;20918;-74
2023/10/04 12:58:54;;;;;;;2.33;1.63;;;20.00;55.60;;;;;;4993042;28;20423;-75
2023/10/04 13:01:20;;;;;;;7.07;2.20;;;20.30;55.20;;;;;;4991628;28;20263;-75